Tasman — ZDKI2 — position and weather

sailwx.info

Track history (hours):
 
Tides and Currents Weather Stations Pressure Air Temp Water Temp Dewpoint Dewpoint Depression Visibility Wind Speed Wind Dir Waves Ship Positions

Tasman

Last reported at 2016-May-22 19:09 UTC. Time now 2016-May-25 16:56 UTC.
Position N 49°44' W 003°32'.

Length 90 m; draft 4 m.

Type: Ship. MMSI: 23617000.

Date/timePositionNaut miles runAvg speedWind from/ knotsBaromVisibWave heightAir tempDewpointWater temp
2016-May-22 19:09N 49°44' W 003°32'6 9.8
2016-May-22 18:33N 49°47' W 003°24'1010.0
2016-May-22 17:33N 49°52' W 003°11'1111.0
2016-May-22 16:33N 49°57' W 002°56'1312.5
2016-May-22 15:33N 50°03' W 002°38'8612.1
2016-May-22 08:28N 50°27' W 000°29'9 9.5
2016-May-22 07:33N 50°29' W 000°16'1110.8
2016-May-22 06:31N 50°33' E 000°00'1212.0
2016-May-22 05:34N 50°36' E 000°18'4811.8
2016-May-22 01:30N 51°01' E 001°22'9 9.1
2016-May-22 00:33N 51°07' E 001°32'9 8.6
2016-May-21 23:33N 51°13' E 001°42'1010.3
2016-May-21 22:33N 51°20' E 001°54'1010.4
2016-May-21 21:33N 51°23' E 002°10'1412.6
2016-May-21 20:29N 51°23' E 002°32'1112.3
2016-May-21 19:33N 51°22' E 002°50'1513.0
2016-May-21 18:25N 51°25' E 003°13'1214.0
2016-May-21 17:34N 51°26' E 003°33'1111.4
2016-May-21 16:33N 51°21' E 003°49'9 8.8
2016-May-21 15:34N 51°23' E 004°03'9 9.1
2016-May-21 14:34N 51°20' E 004°16'4 3.5
2016-May-21 13:34N 51°17' E 004°20'3 2.6
2016-May-21 12:33N 51°15' E 004°23'0 0.0
2016-May-21 11:33N 51°15' E 004°23'0 0.0
2016-May-21 10:33N 51°15' E 004°23'0 0.0
2016-May-21 09:34N 51°15' E 004°23'0 0.0
2016-May-21 08:33N 51°15' E 004°23'0 0.0
2016-May-21 07:33N 51°15' E 004°23'0 0.0
2016-May-21 06:34N 51°15' E 004°23'0 0.0
2016-May-21 05:33N 51°15' E 004°23'0 0.0
2016-May-21 04:33N 51°15' E 004°23'0 0.0
2016-May-21 03:33N 51°15' E 004°23'0 0.0
2016-May-21 02:33N 51°15' E 004°23'0 0.0
2016-May-21 01:33N 51°15' E 004°23'0 0.0
2016-May-21 00:33N 51°15' E 004°23'0 0.0
2016-May-20 23:33N 51°15' E 004°23'0 0.0
2016-May-20 22:33N 51°15' E 004°23'0 0.0
2016-May-20 21:33N 51°15' E 004°23'0 0.0
2016-May-20 20:33N 51°15' E 004°23'0 0.0
2016-May-20 19:33N 51°15' E 004°23'0 0.0
2016-May-20 18:33N 51°15' E 004°23'0 0.0
2016-May-20 17:33N 51°15' E 004°23'0 0.0
2016-May-20 16:33N 51°15' E 004°23'0 0.0
2016-May-20 15:33N 51°15' E 004°23'0 0.0
2016-May-20 14:33N 51°15' E 004°23'0 0.0
2016-May-20 13:34N 51°15' E 004°23'0 0.0
2016-May-20 12:34N 51°15' E 004°23'0 0.3
2016-May-20 11:33N 51°15' E 004°22'1 0.8
2016-May-20 10:33N 51°16' E 004°22'0 0.0
2016-May-20 09:33N 51°16' E 004°22'0 0.0
2016-May-20 08:33N 51°16' E 004°22'0 0.0
2016-May-20 07:33N 51°16' E 004°22'0 0.0
2016-May-20 06:34N 51°16' E 004°22'0 0.0
2016-May-20 05:33N 51°16' E 004°22'0 0.0
2016-May-20 04:33N 51°16' E 004°22'0 0.0
2016-May-20 03:34N 51°16' E 004°22'0 0.0
2016-May-20 02:33N 51°16' E 004°22'0 0.0
2016-May-20 01:34N 51°16' E 004°22'0 0.0
2016-May-20 00:33N 51°16' E 004°22'0 0.0
2016-May-19 23:33N 51°16' E 004°22'0 0.0
2016-May-19 22:34N 51°16' E 004°22'0 0.0
2016-May-19 21:33N 51°16' E 004°22'0 0.0
2016-May-19 20:34N 51°16' E 004°22'0 0.0
2016-May-19 19:33N 51°16' E 004°22'0 0.0
2016-May-19 18:34N 51°16' E 004°22'0 0.0
2016-May-19 17:34N 51°16' E 004°22'0 0.0
2016-May-19 16:33N 51°16' E 004°22'0 0.0
2016-May-19 15:34N 51°16' E 004°22'0 0.0
2016-May-19 14:34N 51°16' E 004°22'0 0.0
2016-May-19 13:34N 51°16' E 004°22'0 0.0
2016-May-19 12:34N 51°16' E 004°22'0 0.0
2016-May-19 11:34N 51°16' E 004°22'0 0.0
2016-May-19 10:33N 51°16' E 004°22'0 0.0
2016-May-19 09:34N 51°16' E 004°22'0 0.0
2016-May-19 08:34N 51°16' E 004°22'0 0.0
2016-May-19 07:33N 51°16' E 004°22'0 0.1
2016-May-19 06:34N 51°16' E 004°22'0 0.1
2016-May-19 05:34N 51°16' E 004°22'0 0.0
2016-May-19 04:33N 51°16' E 004°22'0 0.0
2016-May-19 03:34N 51°16' E 004°22'0 0.0
2016-May-19 02:33N 51°16' E 004°22'0 0.0
2016-May-19 01:34N 51°16' E 004°22'0 0.0
2016-May-19 00:34N 51°16' E 004°22'0 0.0
2016-May-18 23:34N 51°16' E 004°22'0 0.0
2016-May-18 22:34N 51°16' E 004°22'0 0.0
2016-May-18 21:34N 51°16' E 004°22'0 0.0
2016-May-18 20:34N 51°16' E 004°22'0 0.0
2016-May-18 19:34N 51°16' E 004°22'0 0.0
2016-May-18 18:34N 51°16' E 004°22'0 0.0
2016-May-18 17:34N 51°16' E 004°22'0 0.4
2016-May-18 16:34N 51°16' E 004°22'2 1.9
2016-May-18 15:33N 51°17' E 004°19'5 4.8
2016-May-18 14:33N 51°12' E 004°22'6 5.8
2016-May-18 13:33N 51°07' E 004°18'2 1.8
2016-May-18 12:33N 51°06' E 004°20'0 0.4
2016-May-18 11:32N 51°05' E 004°21'0 0.0
2016-May-18 10:33N 51°05' E 004°21'0 0.0
2016-May-18 09:32N 51°05' E 004°21'0 0.0
2016-May-18 08:34N 51°05' E 004°21'0 0.0
2016-May-18 07:33N 51°05' E 004°21'0 0.0
2016-May-18 04:12N 51°05' E 004°21'0 0.0
2016-May-18 03:33N 51°05' E 004°21'0 0.0
2016-May-18 02:31N 51°05' E 004°21'0 0.0
2016-May-18 01:31N 51°05' E 004°21'0 0.0
2016-May-18 00:16N 51°05' E 004°21'0 0.0
2016-May-17 21:18N 51°05' E 004°21'0 0.0
2016-May-17 12:26N 51°05' E 004°21'0 0.0
2016-May-17 11:33N 51°05' E 004°21'0 0.0
2016-May-17 10:25N 51°05' E 004°21'0 0.0
2016-May-17 09:23N 51°05' E 004°21'0 0.0
2016-May-17 08:33N 51°05' E 004°21'2 0.0
2016-May-15 09:33N 51°06' E 004°18'5 5.5
2016-May-15 08:34N 51°12' E 004°20'7 6.7
2016-May-15 07:34N 51°18' E 004°17'8 8.0
2016-May-15 06:33N 51°22' E 004°06'7 7.2
2016-May-15 05:34N 51°22' E 003°54'1010.3
2016-May-15 04:33N 51°26' E 003°40'1110.6
2016-May-15 03:33N 51°32' E 003°25'159 9.3
2016-May-14 10:33N 53°60' E 005°01'9 8.9
2016-May-14 09:34N 54°07' E 005°09'271 9.7
2016-May-13 05:32N 57°41' E 010°06'1010.5
2016-May-13 04:33N 57°45' E 010°24'1010.4
2016-May-13 03:33N 57°48' E 010°42'1010.4
2016-May-13 02:33N 57°42' E 010°59'1111.2
2016-May-13 01:33N 57°34' E 011°13'1110.7
2016-May-13 00:33N 57°26' E 011°27'1110.6
2016-May-12 23:33N 57°17' E 011°35'1110.5
2016-May-12 22:33N 57°07' E 011°44'1010.3
2016-May-12 21:33N 56°58' E 011°52'1010.5
2016-May-12 20:33N 56°48' E 011°59'1110.7
2016-May-12 19:33N 56°38' E 012°07'  
Track history (hours):
 
Tides and Currents Weather Stations Pressure Air Temp Water Temp Dewpoint Dewpoint Depression Visibility Wind Speed Wind Dir Waves Ship Positions

Tasman

Last reported at 2016-May-22 19:09 UTC. Time now 2016-May-25 16:56 UTC.
Position N 49°44' W 003°32'.

Length 90 m; draft 4 m.

Type: Ship. MMSI: 23617000.

Date/timePositionNaut miles runAvg speedWind from/ knotsBaromVisibWave heightAir tempDewpointWater temp
2016-May-22 19:09N 49°44' W 003°32'6 9.8
2016-May-22 18:33N 49°47' W 003°24'1010.0
2016-May-22 17:33N 49°52' W 003°11'1111.0
2016-May-22 16:33N 49°57' W 002°56'1312.5
2016-May-22 15:33N 50°03' W 002°38'8612.1
2016-May-22 08:28N 50°27' W 000°29'9 9.5
2016-May-22 07:33N 50°29' W 000°16'1110.8
2016-May-22 06:31N 50°33' E 000°00'1212.0
2016-May-22 05:34N 50°36' E 000°18'4811.8
2016-May-22 01:30N 51°01' E 001°22'9 9.1
2016-May-22 00:33N 51°07' E 001°32'9 8.6
2016-May-21 23:33N 51°13' E 001°42'1010.3
2016-May-21 22:33N 51°20' E 001°54'1010.4
2016-May-21 21:33N 51°23' E 002°10'1412.6
2016-May-21 20:29N 51°23' E 002°32'1112.3
2016-May-21 19:33N 51°22' E 002°50'1513.0
2016-May-21 18:25N 51°25' E 003°13'1214.0
2016-May-21 17:34N 51°26' E 003°33'1111.4
2016-May-21 16:33N 51°21' E 003°49'9 8.8
2016-May-21 15:34N 51°23' E 004°03'9 9.1
2016-May-21 14:34N 51°20' E 004°16'4 3.5
2016-May-21 13:34N 51°17' E 004°20'3 2.6
2016-May-21 12:33N 51°15' E 004°23'0 0.0
2016-May-21 11:33N 51°15' E 004°23'0 0.0
2016-May-21 10:33N 51°15' E 004°23'0 0.0
2016-May-21 09:34N 51°15' E 004°23'0 0.0
2016-May-21 08:33N 51°15' E 004°23'0 0.0
2016-May-21 07:33N 51°15' E 004°23'0 0.0
2016-May-21 06:34N 51°15' E 004°23'0 0.0
2016-May-21 05:33N 51°15' E 004°23'0 0.0
2016-May-21 04:33N 51°15' E 004°23'0 0.0
2016-May-21 03:33N 51°15' E 004°23'0 0.0
2016-May-21 02:33N 51°15' E 004°23'0 0.0
2016-May-21 01:33N 51°15' E 004°23'0 0.0
2016-May-21 00:33N 51°15' E 004°23'0 0.0
2016-May-20 23:33N 51°15' E 004°23'0 0.0
2016-May-20 22:33N 51°15' E 004°23'0 0.0
2016-May-20 21:33N 51°15' E 004°23'0 0.0
2016-May-20 20:33N 51°15' E 004°23'0 0.0
2016-May-20 19:33N 51°15' E 004°23'0 0.0
2016-May-20 18:33N 51°15' E 004°23'0 0.0
2016-May-20 17:33N 51°15' E 004°23'0 0.0
2016-May-20 16:33N 51°15' E 004°23'0 0.0
2016-May-20 15:33N 51°15' E 004°23'0 0.0
2016-May-20 14:33N 51°15' E 004°23'0 0.0
2016-May-20 13:34N 51°15' E 004°23'0 0.0
2016-May-20 12:34N 51°15' E 004°23'0 0.3
2016-May-20 11:33N 51°15' E 004°22'1 0.8
2016-May-20 10:33N 51°16' E 004°22'0 0.0
2016-May-20 09:33N 51°16' E 004°22'0 0.0
2016-May-20 08:33N 51°16' E 004°22'0 0.0
2016-May-20 07:33N 51°16' E 004°22'0 0.0
2016-May-20 06:34N 51°16' E 004°22'0 0.0
2016-May-20 05:33N 51°16' E 004°22'0 0.0
2016-May-20 04:33N 51°16' E 004°22'0 0.0
2016-May-20 03:34N 51°16' E 004°22'0 0.0
2016-May-20 02:33N 51°16' E 004°22'0 0.0
2016-May-20 01:34N 51°16' E 004°22'0 0.0
2016-May-20 00:33N 51°16' E 004°22'0 0.0
2016-May-19 23:33N 51°16' E 004°22'0 0.0
2016-May-19 22:34N 51°16' E 004°22'0 0.0
2016-May-19 21:33N 51°16' E 004°22'0 0.0
2016-May-19 20:34N 51°16' E 004°22'0 0.0
2016-May-19 19:33N 51°16' E 004°22'0 0.0
2016-May-19 18:34N 51°16' E 004°22'0 0.0
2016-May-19 17:34N 51°16' E 004°22'0 0.0
2016-May-19 16:33N 51°16' E 004°22'0 0.0
2016-May-19 15:34N 51°16' E 004°22'0 0.0
2016-May-19 14:34N 51°16' E 004°22'0 0.0
2016-May-19 13:34N 51°16' E 004°22'0 0.0
2016-May-19 12:34N 51°16' E 004°22'0 0.0
2016-May-19 11:34N 51°16' E 004°22'0 0.0
2016-May-19 10:33N 51°16' E 004°22'0 0.0
2016-May-19 09:34N 51°16' E 004°22'0 0.0
2016-May-19 08:34N 51°16' E 004°22'0 0.0
2016-May-19 07:33N 51°16' E 004°22'0 0.1
2016-May-19 06:34N 51°16' E 004°22'0 0.1
2016-May-19 05:34N 51°16' E 004°22'0 0.0
2016-May-19 04:33N 51°16' E 004°22'0 0.0
2016-May-19 03:34N 51°16' E 004°22'0 0.0
2016-May-19 02:33N 51°16' E 004°22'0 0.0
2016-May-19 01:34N 51°16' E 004°22'0 0.0
2016-May-19 00:34N 51°16' E 004°22'0 0.0
2016-May-18 23:34N 51°16' E 004°22'0 0.0
2016-May-18 22:34N 51°16' E 004°22'0 0.0
2016-May-18 21:34N 51°16' E 004°22'0 0.0
2016-May-18 20:34N 51°16' E 004°22'0 0.0
2016-May-18 19:34N 51°16' E 004°22'0 0.0
2016-May-18 18:34N 51°16' E 004°22'0 0.0
2016-May-18 17:34N 51°16' E 004°22'0 0.4
2016-May-18 16:34N 51°16' E 004°22'2 1.9
2016-May-18 15:33N 51°17' E 004°19'5 4.8
2016-May-18 14:33N 51°12' E 004°22'6 5.8
2016-May-18 13:33N 51°07' E 004°18'2 1.8
2016-May-18 12:33N 51°06' E 004°20'0 0.4
2016-May-18 11:32N 51°05' E 004°21'0 0.0
2016-May-18 10:33N 51°05' E 004°21'0 0.0
2016-May-18 09:32N 51°05' E 004°21'0 0.0
2016-May-18 08:34N 51°05' E 004°21'0 0.0
2016-May-18 07:33N 51°05' E 004°21'0 0.0
2016-May-18 04:12N 51°05' E 004°21'0 0.0
2016-May-18 03:33N 51°05' E 004°21'0 0.0
2016-May-18 02:31N 51°05' E 004°21'0 0.0
2016-May-18 01:31N 51°05' E 004°21'0 0.0
2016-May-18 00:16N 51°05' E 004°21'0 0.0
2016-May-17 21:18N 51°05' E 004°21'0 0.0
2016-May-17 12:26N 51°05' E 004°21'0 0.0
2016-May-17 11:33N 51°05' E 004°21'0 0.0
2016-May-17 10:25N 51°05' E 004°21'0 0.0
2016-May-17 09:23N 51°05' E 004°21'0 0.0
2016-May-17 08:33N 51°05' E 004°21'2 0.0
2016-May-15 09:33N 51°06' E 004°18'5 5.5
2016-May-15 08:34N 51°12' E 004°20'7 6.7
2016-May-15 07:34N 51°18' E 004°17'8 8.0
2016-May-15 06:33N 51°22' E 004°06'7 7.2
2016-May-15 05:34N 51°22' E 003°54'1010.3
2016-May-15 04:33N 51°26' E 003°40'1110.6
2016-May-15 03:33N 51°32' E 003°25'159 9.3
2016-May-14 10:33N 53°60' E 005°01'9 8.9
2016-May-14 09:34N 54°07' E 005°09'271 9.7
2016-May-13 05:32N 57°41' E 010°06'1010.5
2016-May-13 04:33N 57°45' E 010°24'1010.4
2016-May-13 03:33N 57°48' E 010°42'1010.4
2016-May-13 02:33N 57°42' E 010°59'1111.2
2016-May-13 01:33N 57°34' E 011°13'1110.7
2016-May-13 00:33N 57°26' E 011°27'1110.6
2016-May-12 23:33N 57°17' E 011°35'1110.5
2016-May-12 22:33N 57°07' E 011°44'1010.3
2016-May-12 21:33N 56°58' E 011°52'1010.5
2016-May-12 20:33N 56°48' E 011°59'1110.7
2016-May-12 19:33N 56°38' E 012°07'  

Dump ship's entire track history